Time;durP1;ratioP1;P1;durP2;ratioP2;P2;SDS_P1;SDS_P2;PMS_P1;PMS_P2;Temp;Humidity;BMP_temperature;BMP_pressure;BME280_temperature;BME280_humidity;BME280_pressure;Samples;Min_cycle;Max_cycle;Signal;HPM_P1;HPM_P2
2022/01/19 00:00:48;;;;;;;;;23.25;21.75;;;;;8.82;59.32;102607.75;5021377;28;47133;-49
2022/01/19 00:03:14;;;;;;;;;35.25;31.25;;;;;8.82;59.30;102608.66;5039275;28;45323;-50
2022/01/19 00:05:40;;;;;;;;;32.50;27.50;;;;;8.83;59.52;102614.78;5038925;28;45337;-49
2022/01/19 00:08:05;;;;;;;;;33.00;29.25;;;;;8.83;59.57;102612.16;5038968;28;45571;-47
2022/01/19 00:10:31;;;;;;;;;28.75;25.75;;;;;8.82;59.48;102611.28;5038859;28;45965;-49
2022/01/19 00:12:58;;;;;;;;;33.50;29.25;;;;;8.82;59.50;102613.00;5021286;28;45920;-48
2022/01/19 00:15:25;;;;;;;;;29.25;28.25;;;;;8.81;59.42;102608.63;5042272;28;45317;-49
2022/01/19 00:17:56;;;;;;;;;24.00;21.50;;;;;8.81;59.33;102601.66;5042578;28;45517;-48
2022/01/19 00:20:22;;;;;;;;;32.50;29.50;;;;;8.83;59.40;102588.56;5042141;28;46151;-48
2022/01/19 00:22:49;;;;;;;;;31.50;29.00;;;;;8.83;59.67;102576.38;5042361;28;45289;-47
2022/01/19 00:25:15;;;;;;;;;36.25;32.75;;;;;8.85;59.53;102560.66;5042095;28;45242;-51
2022/01/19 00:27:40;;;;;;;;;29.25;28.75;;;;;8.86;59.71;102560.69;5042386;28;45460;-49
2022/01/19 00:30:06;;;;;;;;;33.75;29.25;;;;;8.85;59.27;102547.53;5042128;28;45286;-47
2022/01/19 00:32:33;;;;;;;;;31.75;27.25;;;;;8.86;59.40;102533.59;5042286;28;45344;-48
2022/01/19 00:34:58;;;;;;;;;29.25;27.50;;;;;8.87;59.86;102528.38;5042042;28;45294;-48
2022/01/19 00:37:24;;;;;;;;;36.25;29.75;;;;;8.89;59.56;102525.78;5042213;28;45393;-48
2022/01/19 00:39:50;;;;;;;;;28.75;27.50;;;;;8.85;59.49;102530.06;5041874;28;45357;-48
2022/01/19 00:42:15;;;;;;;;;29.75;26.50;;;;;8.87;59.62;102543.22;5042162;28;45322;-47
2022/01/19 00:44:41;;;;;;;;;33.75;27.00;;;;;8.88;59.66;102552.84;5042093;28;45534;-49
2022/01/19 00:47:06;;;;;;;;;33.50;30.00;;;;;8.88;59.50;102558.09;5042106;28;45313;-47
2022/01/19 00:49:32;;;;;;;;;31.25;26.00;;;;;8.89;59.44;102566.00;5049112;28;46045;-47
2022/01/19 00:51:57;;;;;;;;;31.75;28.75;;;;;8.90;59.48;102551.16;5041987;28;45177;-48
2022/01/19 00:54:22;;;;;;;;;29.00;27.25;;;;;8.90;59.64;102559.03;5041910;28;45253;-48
2022/01/19 00:56:48;;;;;;;;;29.50;25.50;;;;;8.90;59.37;102577.38;5041934;28;45234;-47
2022/01/19 00:59:13;;;;;;;;;28.00;23.75;;;;;8.91;59.73;102566.03;5041774;28;45570;-49
2022/01/19 01:01:39;;;;;;;;;27.00;23.50;;;;;8.91;59.71;102559.03;5041788;28;45164;-48
2022/01/19 01:04:04;;;;;;;;;26.00;23.75;;;;;8.92;59.40;102552.09;5041632;28;46168;-46
2022/01/19 01:06:30;;;;;;;;;28.25;24.25;;;;;8.90;59.46;102548.53;5041573;28;46484;-48
2022/01/19 01:08:56;;;;;;;;;19.50;17.50;;;;;8.90;59.26;102549.41;5041428;28;46137;-47
2022/01/19 01:11:28;;;;;;;;;25.25;22.00;;;;;8.90;59.44;102540.66;5024073;28;45279;-46
2022/01/19 01:16:40;;;;;;;;;28.00;21.00;;;;;8.86;59.38;102528.34;5041505;28;45314;-51
2022/01/19 01:19:10;;;;;;;;;24.00;19.75;;;;;8.86;59.48;102521.34;5041129;28;46303;-49
2022/01/19 01:21:36;;;;;;;;;22.00;19.50;;;;;8.85;59.22;102511.72;5041424;28;45452;-49
2022/01/19 01:24:03;;;;;;;;;23.75;23.00;;;;;8.84;59.20;102509.06;5041216;28;45313;-46
2022/01/19 01:26:29;;;;;;;;;18.25;14.25;;;;;8.83;59.25;102502.97;5040966;28;45168;-48
2022/01/19 01:28:55;;;;;;;;;24.75;22.75;;;;;8.83;59.31;102513.44;5041184;28;46060;-47
2022/01/19 01:31:20;;;;;;;;;20.75;19.75;;;;;8.83;59.22;102523.03;5041236;28;45473;-49
2022/01/19 01:33:46;;;;;;;;;24.75;21.25;;;;;8.78;59.36;102534.31;5041345;28;45221;-51
2022/01/19 01:36:11;;;;;;;;;18.75;18.50;;;;;8.77;59.30;102535.16;5041038;28;45566;-48
2022/01/19 01:38:37;;;;;;;;;21.75;21.75;;;;;8.80;59.35;102531.72;5040991;28;46101;-51
2022/01/19 01:41:04;;;;;;;;;23.75;20.50;;;;;8.78;59.45;102536.06;5040992;28;45344;-47
2022/01/19 01:43:30;;;;;;;;;26.50;21.50;;;;;8.77;59.53;102529.03;5041201;28;45448;-50
2022/01/19 01:46:02;;;;;;;;;20.50;19.00;;;;;8.78;59.48;102530.81;5022939;28;45556;-48
2022/01/19 01:48:27;;;;;;;;;28.50;25.75;;;;;8.78;59.46;102528.19;5042239;28;45610;-46
2022/01/19 01:53:37;;;;;;;;;24.00;20.75;;;;;8.75;59.39;102520.25;5041357;28;45402;-50
2022/01/19 01:56:05;;;;;;;;;25.25;22.25;;;;;8.74;59.37;102522.00;5022740;28;45417;-48
2022/01/19 01:58:37;;;;;;;;;22.75;17.75;;;;;8.74;59.06;102514.13;5040973;28;45321;-48
2022/01/19 02:01:03;;;;;;;;;26.50;20.75;;;;;8.74;59.26;102505.34;5022887;28;45404;-47
2022/01/19 02:03:36;;;;;;;;;29.50;26.50;;;;;8.74;59.33;102508.88;5023030;28;45286;-47
2022/01/19 02:08:36;;;;;;;;;22.00;20.25;;;;;8.74;59.56;102503.63;5040284;28;45361;-46
2022/01/19 02:16:30;;;;;;;;;26.75;25.50;;;;;8.69;59.51;102475.53;5025544;28;45318;-47
2022/01/19 02:21:57;;;;;;;;;22.00;20.25;;;;;8.66;59.32;102465.88;5025415;28;45295;-47
2022/01/19 02:24:28;;;;;;;;;26.00;22.25;;;;;8.69;59.48;102460.72;5040672;28;45457;-47
2022/01/19 02:40:39;;;;;;;;;29.50;27.75;;;;;8.61;59.13;102433.44;5018692;28;45463;-47
2022/01/19 02:43:09;;;;;;;;;23.75;20.75;;;;;8.62;59.30;102432.59;5060194;28;45285;-47
2022/01/19 02:51:07;;;;;;;;;25.50;25.00;;;;;8.57;59.12;102397.56;5044485;28;45443;-47
2022/01/19 02:53:37;;;;;;;;;27.25;24.00;;;;;8.55;59.08;102397.53;5039988;28;45261;-48
2022/01/19 02:56:15;;;;;;;;;27.50;22.25;;;;;8.57;59.14;102394.94;5022528;28;45266;-47
2022/01/19 02:58:54;;;;;;;;;29.75;26.50;;;;;8.56;59.35;102388.78;5040119;28;45218;-50
2022/01/19 03:09:23;;;;;;;;;32.50;26.50;;;;;8.53;59.29;102387.84;5039573;28;45160;-47
2022/01/19 03:11:50;;;;;;;;;25.75;22.50;;;;;8.53;59.23;102390.47;5039717;28;45465;-47
2022/01/19 03:14:17;;;;;;;;;32.00;25.75;;;;;8.49;59.07;102386.94;5021680;28;45242;-49
2022/01/19 03:16:43;;;;;;;;;27.50;24.25;;;;;8.49;59.27;102384.31;5040093;28;45305;-48
2022/01/19 03:19:10;;;;;;;;;27.75;26.00;;;;;8.48;59.26;102385.16;5021450;28;45810;-49
2022/01/19 03:21:35;;;;;;;;;28.75;26.00;;;;;8.48;59.25;102392.09;5021722;28;47832;-46
2022/01/19 03:24:01;;;;;;;;;29.00;25.75;;;;;8.47;59.39;102388.63;5039353;28;45416;-47
2022/01/19 03:26:27;;;;;;;;;28.00;27.00;;;;;8.46;59.48;102389.47;5039686;28;45218;-47
2022/01/19 03:28:53;;;;;;;;;29.00;25.00;;;;;8.43;59.48;102387.63;5039527;28;45544;-46
2022/01/19 03:31:19;;;;;;;;;23.00;21.75;;;;;8.43;59.19;102386.75;5021602;28;47611;-47
2022/01/19 03:33:45;;;;;;;;;27.25;25.75;;;;;8.42;59.25;102383.25;5039186;28;45286;-46
2022/01/19 03:36:10;;;;;;;;;29.25;26.25;;;;;8.42;59.21;102377.13;5039750;28;45329;-47
2022/01/19 03:38:36;;;;;;;;;25.00;24.75;;;;;8.41;59.03;102370.13;5039411;28;45335;-47
2022/01/19 03:41:02;;;;;;;;;30.25;29.75;;;;;8.39;59.29;102379.66;5021310;28;45489;-47
2022/01/19 03:43:27;;;;;;;;;31.50;28.75;;;;;8.39;59.32;102377.94;5039370;28;45242;-48
2022/01/19 03:45:54;;;;;;;;;32.25;27.75;;;;;8.39;59.36;102374.44;5039606;28;45238;-49
2022/01/19 03:48:45;;;;;;;;;32.75;28.75;;;;;8.37;59.20;102371.78;5041206;28;45321;-46
2022/01/19 03:51:11;;;;;;;;;31.00;28.00;;;;;8.36;59.22;102370.00;5048334;28;45445;-46
2022/01/19 03:53:37;;;;;;;;;29.25;27.00;;;;;8.36;59.25;102370.00;5042856;28;45300;-47
2022/01/19 03:56:03;;;;;;;;;27.75;24.75;;;;;8.34;59.56;102366.50;5024878;28;45272;-47
2022/01/19 03:58:28;;;;;;;;;27.75;24.25;;;;;8.33;58.84;102364.72;5043001;28;45180;-50
2022/01/19 04:00:57;;;;;;;;;27.75;23.50;;;;;8.32;59.38;102365.56;5024747;28;46606;-47
2022/01/19 04:03:36;;;;;;;;;27.50;24.50;;;;;8.30;59.26;102362.03;5043003;28;45420;-48
2022/01/19 04:06:15;;;;;;;;;31.00;26.00;;;;;8.30;59.18;102343.69;5042363;28;45432;-50
2022/01/19 04:08:40;;;;;;;;;33.50;29.75;;;;;8.30;59.09;102344.59;5042591;28;45516;-46
2022/01/19 04:11:06;;;;;;;;;33.50;28.75;;;;;8.30;59.45;102354.16;5042158;28;46273;-46
2022/01/19 04:13:44;;;;;;;;;30.75;28.25;;;;;8.30;59.26;102349.81;5042674;28;45166;-45
2022/01/19 04:16:10;;;;;;;;;23.25;23.25;;;;;8.28;59.04;102348.91;5042632;28;45435;-46
2022/01/19 04:18:35;;;;;;;;;28.25;24.50;;;;;8.29;59.22;102344.56;5024448;28;45663;-48
2022/01/19 04:21:02;;;;;;;;;29.00;24.25;;;;;8.27;58.93;102338.41;5024289;28;45388;-47
2022/01/19 04:23:28;;;;;;;;;30.50;24.75;;;;;8.27;59.27;102347.13;5042395;28;45233;-50
2022/01/19 04:25:54;;;;;;;;;26.25;24.25;;;;;8.25;59.22;102334.84;5042351;28;45242;-48
2022/01/19 04:28:20;;;;;;;;;30.25;29.25;;;;;8.28;59.03;102341.03;5042285;28;45486;-48
2022/01/19 04:30:45;;;;;;;;;27.00;26.00;;;;;8.29;59.16;102347.19;5042443;28;45906;-48
2022/01/19 04:33:19;;;;;;;;;30.50;27.00;;;;;8.29;59.25;102352.41;5042328;28;45197;-46
2022/01/19 04:35:50;;;;;;;;;25.50;22.75;;;;;8.28;59.11;102348.91;5031908;28;45463;-49
2022/01/19 05:05:09;;;;;;;;;32.00;29.50;;;;;8.23;59.30;102339.19;5061597;28;45406;-51
2022/01/19 05:08:01;;;;;;;;;33.25;28.50;;;;;8.25;59.21;102340.09;5058438;28;45395;-51
2022/01/19 05:15:50;;;;;;;;;36.50;31.00;;;;;8.20;59.21;102344.34;5041606;28;45254;-45
2022/01/19 05:18:17;;;;;;;;;33.75;28.00;;;;;8.19;59.28;102345.19;5041649;28;45318;-51
2022/01/19 05:20:42;;;;;;;;;34.25;33.25;;;;;8.19;59.22;102339.97;5041224;28;45444;-46
2022/01/19 05:23:08;;;;;;;;;30.25;27.75;;;;;8.19;59.24;102342.56;5041485;28;45409;-51
2022/01/19 05:25:33;;;;;;;;;35.50;29.50;;;;;8.16;59.37;102337.28;5041195;28;45257;-51
2022/01/19 05:27:58;;;;;;;;;29.25;26.25;;;;;8.17;59.52;102339.06;5041661;28;45382;-51
2022/01/19 05:30:23;;;;;;;;;36.50;30.50;;;;;8.14;59.27;102332.91;5023412;28;45349;-48
2022/01/19 05:32:49;;;;;;;;;33.25;32.75;;;;;8.14;59.25;102332.91;5041286;28;46273;-50
2022/01/19 05:35:15;;;;;;;;;30.75;30.75;;;;;8.14;59.39;102332.03;5041020;28;45325;-51
2022/01/19 05:37:40;;;;;;;;;19.75;19.75;;;;;8.13;59.25;102325.00;5041529;28;45313;-51
2022/01/19 05:40:09;;;;;;;;;34.75;27.00;;;;;8.13;59.36;102330.25;5040957;28;45255;-47
2022/01/19 05:42:34;;;;;;;;;37.00;33.25;;;;;8.11;59.24;102327.59;5041334;28;45968;-48
2022/01/19 05:45:00;;;;;;;;;35.50;31.25;;;;;8.09;59.31;102324.06;5040956;28;45187;-47
2022/01/19 05:47:26;;;;;;;;;32.75;29.25;;;;;8.08;59.25;102324.03;5041366;28;45308;-49
2022/01/19 05:49:51;;;;;;;;;35.00;29.50;;;;;8.03;59.32;102318.69;5049593;28;45170;-51
2022/01/19 05:52:17;;;;;;;;;34.00;31.50;;;;;8.04;59.18;102323.09;5041059;28;46038;-47
2022/01/19 05:54:42;;;;;;;;;32.25;29.25;;;;;8.03;59.38;102323.06;5023009;28;45290;-49
2022/01/19 05:57:08;;;;;;;;;26.25;24.50;;;;;8.03;59.58;102323.06;5041133;28;45412;-49
2022/01/19 05:59:34;;;;;;;;;39.50;33.25;;;;;8.04;59.29;102338.78;5040725;28;45394;-49
2022/01/19 06:02:00;;;;;;;;;28.75;25.50;;;;;8.03;59.02;102342.25;5022934;28;46127;-47
2022/01/19 06:04:25;;;;;;;;;33.25;29.25;;;;;8.02;59.49;102339.59;5040477;28;45324;-46
2022/01/19 06:06:53;;;;;;;;;35.75;31.50;;;;;8.00;59.59;102336.06;5040837;28;45436;-48
2022/01/19 06:12:07;;;;;;;;;38.75;32.25;;;;;7.96;59.38;102319.41;5052604;28;45357;-46
2022/01/19 06:14:35;;;;;;;;;33.50;30.25;;;;;7.97;59.35;102323.78;5060716;28;45504;-48
2022/01/19 06:17:02;;;;;;;;;33.50;30.75;;;;;7.96;59.39;102327.25;5060838;28;45359;-50
2022/01/19 06:19:28;;;;;;;;;38.00;30.25;;;;;7.94;59.40;102332.47;5060459;28;45600;-49
2022/01/19 06:21:54;;;;;;;;;31.25;28.00;;;;;7.94;59.60;102332.47;5060753;28;46199;-48
2022/01/19 06:24:19;;;;;;;;;35.50;31.50;;;;;7.93;59.41;102332.44;5060669;28;45305;-50
2022/01/19 06:26:44;;;;;;;;;36.75;31.50;;;;;7.93;59.50;102337.69;5042533;28;45265;-48
2022/01/19 06:29:10;;;;;;;;;38.75;30.25;;;;;7.94;59.56;102331.59;5060697;28;45462;-49
2022/01/19 06:31:35;;;;;;;;;37.00;30.50;;;;;7.93;59.70;102321.97;5060421;28;45378;-48
2022/01/19 06:34:01;;;;;;;;;39.75;34.00;;;;;7.91;59.62;102328.88;5042444;28;45424;-50
2022/01/19 06:36:26;;;;;;;;;45.25;35.75;;;;;7.90;59.52;102319.25;5060650;28;45371;-46
2022/01/19 06:38:52;;;;;;;;;38.75;33.50;;;;;7.92;59.55;102322.81;5060449;28;46047;-46
2022/01/19 06:41:18;;;;;;;;;34.75;32.75;;;;;7.92;59.59;102318.47;5060329;28;46217;-48
2022/01/19 06:43:43;;;;;;;;;39.50;34.00;;;;;7.91;59.66;102316.69;5060384;28;45239;-47
2022/01/19 06:46:09;;;;;;;;;34.75;32.50;;;;;7.92;59.70;102314.97;5060592;28;45328;-47
2022/01/19 06:48:34;;;;;;;;;37.25;33.75;;;;;7.90;59.80;102314.94;5060028;28;45566;-46
2022/01/19 06:51:00;;;;;;;;;44.25;36.50;;;;;7.88;59.59;102313.13;5038858;28;47240;-48
2022/01/19 06:53:26;;;;;;;;;44.75;34.00;;;;;7.88;59.60;102318.38;5040095;28;45348;-47
2022/01/19 06:55:52;;;;;;;;;39.25;34.25;;;;;7.88;59.75;102320.97;5040167;28;45348;-46
2022/01/19 06:58:17;;;;;;;;;33.75;31.75;;;;;7.87;59.85;102316.59;5039980;28;45229;-46
2022/01/19 07:00:43;;;;;;;;;42.50;32.25;;;;;7.85;59.53;102321.81;5039967;28;46038;-49
2022/01/19 07:03:09;;;;;;;;;38.50;35.25;;;;;7.87;59.61;102321.81;5041323;28;45256;-46
2022/01/19 07:05:34;;;;;;;;;34.50;32.00;;;;;7.85;60.38;102315.66;5047234;28;45226;-48
2022/01/19 07:08:00;;;;;;;;;44.50;34.25;;;;;7.88;59.84;102315.75;5025482;28;45206;-46
2022/01/19 07:10:31;;;;;;;;;37.50;32.50;;;;;7.85;59.78;102308.72;5039749;28;45242;-47
2022/01/19 07:12:56;;;;;;;;;39.75;36.00;;;;;7.89;59.80;102310.53;5052546;28;45310;-48
2022/01/19 07:15:22;;;;;;;;;41.00;35.75;;;;;7.90;59.80;102309.69;5039781;28;45317;-47
2022/01/19 07:17:47;;;;;;;;;39.50;32.75;;;;;7.93;59.72;102321.97;5039959;28;45329;-46
2022/01/19 07:20:13;;;;;;;;;37.25;33.50;;;;;7.93;59.87;102316.72;5021466;28;47806;-48
2022/01/19 07:22:39;;;;;;;;;38.75;33.75;;;;;7.93;60.11;102320.22;5022590;28;46216;-45
2022/01/19 07:25:05;;;;;;;;;33.00;31.50;;;;;7.91;60.08;102313.19;5043525;28;45238;-46
2022/01/19 07:27:30;;;;;;;;;44.75;34.50;;;;;7.91;59.93;102313.19;5025435;28;45183;-46
2022/01/19 07:29:56;;;;;;;;;38.50;36.00;;;;;7.90;60.06;102321.88;5043037;28;46098;-46
2022/01/19 07:32:23;;;;;;;;;38.25;34.00;;;;;7.89;59.99;102323.63;5025409;28;45266;-47
2022/01/19 07:34:48;;;;;;;;;37.50;30.50;;;;;7.92;59.99;102323.72;5025641;28;45359;-49
2022/01/19 07:37:13;;;;;;;;;41.50;34.00;;;;;7.94;59.90;102331.59;5043175;28;45316;-46
2022/01/19 07:39:39;;;;;;;;;44.25;36.00;;;;;7.95;59.86;102335.97;5042881;28;45624;-50
2022/01/19 07:42:04;;;;;;;;;32.50;29.75;;;;;7.96;60.05;102337.72;5025150;28;45310;-51
2022/01/19 07:44:30;;;;;;;;;43.50;35.50;;;;;7.96;60.08;102335.09;5043210;28;45266;-49
2022/01/19 07:46:56;;;;;;;;;43.00;36.00;;;;;7.96;59.90;102330.78;5042866;28;45487;-50
2022/01/19 07:49:21;;;;;;;;;44.00;36.00;;;;;7.97;60.01;102335.16;5050413;28;46204;-48
2022/01/19 07:51:47;;;;;;;;;43.00;35.00;;;;;7.96;59.93;102333.38;5042866;28;45437;-47
2022/01/19 07:54:13;;;;;;;;;43.75;34.75;;;;;7.96;59.93;102328.16;5024952;28;45432;-47
2022/01/19 07:56:38;;;;;;;;;42.50;35.75;;;;;7.98;60.11;102336.91;5042915;28;45555;-50
2022/01/19 07:59:04;;;;;;;;;48.25;39.25;;;;;7.99;60.22;102335.19;5042673;28;46121;-47
2022/01/19 08:01:31;;;;;;;;;18.75;15.25;;;;;8.00;60.17;102334.34;5042816;28;45314;-46
2022/01/19 08:03:58;;;;;;;;;45.25;37.75;;;;;8.02;60.27;102337.00;5024603;28;45250;-45
2022/01/19 08:06:24;;;;;;;;;49.00;38.50;;;;;8.00;60.11;102329.09;5042540;28;45405;-48
2022/01/19 08:08:49;;;;;;;;;41.00;37.00;;;;;8.02;60.06;102343.09;5018045;28;48211;-49
2022/01/19 08:11:14;;;;;;;;;40.75;36.25;;;;;8.02;60.22;102345.72;5049434;28;45352;-50
2022/01/19 08:13:40;;;;;;;;;52.75;40.50;;;;;8.02;60.41;102340.47;5044681;28;45304;-50
2022/01/19 08:16:05;;;;;;;;;46.25;38.25;;;;;8.03;60.01;102326.53;5062615;28;45388;-47
2022/01/19 08:18:31;;;;;;;;;52.00;41.50;;;;;8.05;60.43;102332.72;5044229;28;45412;-50
2022/01/19 08:20:56;;;;;;;;;46.00;38.00;;;;;8.06;60.33;102337.09;5062360;28;45352;-50
2022/01/19 08:23:21;;;;;;;;;43.75;37.00;;;;;8.08;60.27;102335.38;5062736;28;45451;-47
2022/01/19 08:25:47;;;;;;;;;42.50;35.75;;;;;8.10;60.45;102332.78;5062385;28;45324;-49
2022/01/19 08:28:12;;;;;;;;;51.50;40.75;;;;;8.09;60.04;102331.03;5062414;28;45390;-49
2022/01/19 08:30:38;;;;;;;;;46.50;40.00;;;;;8.14;60.37;102338.13;5044114;28;45250;-49
2022/01/19 08:33:03;;;;;;;;;46.50;38.00;;;;;8.15;60.30;102349.50;5044532;28;45350;-50
2022/01/19 08:35:29;;;;;;;;;54.00;40.25;;;;;8.19;60.25;102350.44;5060863;28;45452;-49
2022/01/19 08:37:55;;;;;;;;;45.75;38.00;;;;;8.22;60.19;102353.13;5062245;28;45294;-47
2022/01/19 08:40:26;;;;;;;;;54.25;43.50;;;;;8.24;60.52;102351.44;5062067;28;45413;-45
2022/01/19 08:42:52;;;;;;;;;52.00;41.75;;;;;8.25;60.24;102346.22;5062204;28;45371;-50
2022/01/19 08:45:17;;;;;;;;;55.00;44.50;;;;;8.27;60.38;102354.97;5061956;28;45515;-49
2022/01/19 08:47:42;;;;;;;;;49.25;40.25;;;;;8.28;60.30;102355.88;5062030;28;46175;-49
2022/01/19 08:50:11;;;;;;;;;54.50;44.25;;;;;8.31;60.57;102361.19;5055233;28;45293;-47
2022/01/19 08:52:37;;;;;;;;;51.25;43.00;;;;;8.32;60.53;102354.22;5042063;28;45331;-51
2022/01/19 08:55:03;;;;;;;;;49.50;40.75;;;;;8.32;60.51;102362.09;5023965;28;45460;-48
2022/01/19 08:57:29;;;;;;;;;53.75;42.50;;;;;8.35;60.69;102363.03;5041530;28;46121;-51
2022/01/19 08:59:54;;;;;;;;;50.00;41.50;;;;;8.39;60.65;102363.94;5041730;28;45382;-50
2022/01/19 09:02:20;;;;;;;;;51.00;41.50;;;;;8.41;60.54;102368.38;5041668;28;45542;-50
2022/01/19 09:04:45;;;;;;;;;51.25;39.75;;;;;8.45;60.41;102369.31;5041462;28;45403;-49
2022/01/19 09:07:11;;;;;;;;;47.25;40.00;;;;;8.48;60.50;102373.78;5041261;28;46187;-48
2022/01/19 09:09:36;;;;;;;;;47.25;39.00;;;;;8.51;60.65;102371.22;5041418;28;45289;-50
2022/01/19 09:12:02;;;;;;;;;47.50;39.50;;;;;8.53;60.43;102374.75;5023659;28;45331;-50
2022/01/19 09:14:30;;;;;;;;;51.25;40.00;;;;;8.55;60.45;102381.81;5041272;28;45230;-48
2022/01/19 09:16:55;;;;;;;;;11.50;7.00;;;;;8.51;60.35;102373.84;5041350;28;46161;-48
2022/01/19 09:19:20;;;;;;;;;51.00;36.00;;;;;8.57;60.55;102377.47;5041308;28;45341;-47
2022/01/19 09:21:47;;;;;;;;;52.25;39.75;;;;;8.56;60.47;102375.69;5041555;28;45333;-49
2022/01/19 09:24:12;;;;;;;;;51.50;39.25;;;;;8.58;60.90;102381.00;5041155;28;45294;-49
2022/01/19 09:26:38;;;;;;;;;52.25;39.50;;;;;8.59;60.81;102377.50;5041043;28;45385;-52
2022/01/19 09:29:04;;;;;;;;;41.75;38.25;;;;;8.61;60.60;102378.41;5023237;28;45402;-49
2022/01/19 09:31:29;;;;;;;;;40.50;33.75;;;;;8.62;60.68;102382.81;5041133;28;45320;-51
2022/01/19 09:34:06;;;;;;;;;47.75;36.50;;;;;8.62;60.76;102373.19;5040735;28;45319;-49
2022/01/19 09:36:34;;;;;;;;;48.75;35.00;;;;;8.62;60.43;102377.56;5040871;28;45455;-46
2022/01/19 09:39:00;;;;;;;;;35.75;30.00;;;;;8.64;60.57;102370.63;5030973;28;45287;-49
2022/01/19 09:41:26;;;;;;;;;38.75;34.00;;;;;8.64;60.83;102386.38;5046399;28;45232;-48
2022/01/19 09:43:51;;;;;;;;;43.00;34.25;;;;;8.65;60.68;102389.84;5023059;28;45516;-48
2022/01/19 09:46:17;;;;;;;;;33.75;30.25;;;;;8.66;60.93;102379.38;5040588;28;46889;-47
2022/01/19 09:48:42;;;;;;;;;37.00;33.00;;;;;8.67;60.46;102381.16;5044398;28;45041;-50
2022/01/19 09:51:09;;;;;;;;;38.50;32.75;;;;;8.69;60.80;102381.19;5028997;28;45320;-50
2022/01/19 09:53:34;;;;;;;;;34.25;31.75;;;;;8.71;60.58;102388.22;5040837;28;45321;-49
2022/01/19 09:55:59;;;;;;;;;42.75;32.50;;;;;8.72;60.93;102378.66;5040561;28;45491;-51
2022/01/19 09:58:25;;;;;;;;;36.50;32.00;;;;;8.74;60.86;102387.41;5040850;28;45356;-48
2022/01/19 10:00:51;;;;;;;;;35.00;31.00;;;;;8.73;60.91;102386.53;5040839;28;45250;-50
2022/01/19 10:03:21;;;;;;;;;38.75;31.50;;;;;8.76;60.83;102378.72;5022936;28;45503;-47
2022/01/19 10:06:08;;;;;;;;;36.75;30.00;;;;;8.78;60.72;102390.13;5040360;28;45447;-51
2022/01/19 10:08:54;;;;;;;;;43.75;36.50;;;;;8.81;60.80;102388.44;5040471;28;45481;-49
2022/01/19 10:17:00;;;;;;;;;32.75;23.75;;;;;8.84;60.75;102383.22;5040793;28;45327;-47
2022/01/19 10:19:32;;;;;;;;;33.25;28.00;;;;;8.85;60.92;102377.13;5047665;28;45473;-51
2022/01/19 10:22:06;;;;;;;;;33.75;27.50;;;;;8.86;60.71;102378.91;5060626;28;45502;-50
2022/01/19 10:24:39;;;;;;;;;39.25;33.00;;;;;8.85;60.88;102379.75;5060430;28;45325;-49
2022/01/19 10:27:42;;;;;;;;;35.50;31.00;;;;;8.86;60.96;102377.16;5060348;28;46113;-46
2022/01/19 10:30:08;;;;;;;;;41.25;34.50;;;;;8.88;60.98;102377.19;5060254;28;45435;-50
2022/01/19 10:32:36;;;;;;;;;42.50;33.25;;;;;8.90;60.91;102392.09;5042445;28;45212;-47
2022/01/19 10:35:20;;;;;;;;;34.25;29.25;;;;;8.92;60.71;102377.28;5042208;28;45286;-46
2022/01/19 10:38:03;;;;;;;;;6.00;2.00;;;;;8.93;60.86;102375.53;5060463;28;46377;-47
2022/01/19 10:40:28;;;;;;;;;39.50;31.00;;;;;8.96;60.55;102378.22;5060197;28;45344;-47
2022/01/19 10:42:54;;;;;;;;;43.00;35.25;;;;;8.98;60.73;102373.00;5060447;28;45487;-50
2022/01/19 10:45:19;;;;;;;;;47.00;36.50;;;;;9.01;60.61;102373.94;5060644;28;45478;-48
2022/01/19 10:47:53;;;;;;;;;39.25;35.00;;;;;9.01;60.82;102370.44;5060187;28;46217;-49
2022/01/19 10:50:30;;;;;;;;;48.00;38.00;;;;;9.03;60.90;102363.47;5052197;28;45225;-47
2022/01/19 10:52:58;;;;;;;;;48.50;37.25;;;;;9.04;60.76;102366.16;5040237;28;45305;-46
2022/01/19 10:55:24;;;;;;;;;51.00;40.50;;;;;9.05;60.74;102370.50;5039961;28;45368;-46
2022/01/19 10:57:50;;;;;;;;;52.50;41.25;;;;;9.05;60.91;102364.41;5039121;28;45249;-49
2022/01/19 11:00:25;;;;;;;;;48.75;36.75;;;;;9.05;60.86;102364.41;5039864;28;45317;-48
2022/01/19 11:02:53;;;;;;;;;49.75;39.25;;;;;9.03;61.04;102359.13;5039945;28;45453;-46
2022/01/19 11:05:43;;;;;;;;;47.00;37.00;;;;;9.03;60.93;102353.88;5039795;28;45267;-50
2022/01/19 11:08:09;;;;;;;;;46.50;38.25;;;;;9.03;60.85;102352.97;5039728;28;46909;-46
2022/01/19 11:10:36;;;;;;;;;39.50;34.50;;;;;8.93;60.83;102337.09;5039651;28;45262;-51
2022/01/19 11:13:01;;;;;;;;;52.25;39.25;;;;;8.99;61.20;102341.56;5039999;28;45344;-48
2022/01/19 11:15:26;;;;;;;;;47.50;37.75;;;;;8.97;60.87;102337.13;5039634;28;45580;-51
2022/01/19 11:17:52;;;;;;;;;51.50;40.25;;;;;8.93;60.77;102342.34;5039634;28;45246;-47
2022/01/19 11:20:20;;;;;;;;;45.00;38.25;;;;;8.91;60.95;102343.16;5039341;28;45593;-47
2022/01/19 11:23:21;;;;;;;;;53.00;39.25;;;;;8.92;61.32;102350.19;5039960;28;45245;-49
2022/01/19 11:25:56;;;;;;;;;49.50;40.25;;;;;8.90;61.34;102346.66;5057255;28;45372;-49
2022/01/19 11:28:27;;;;;;;;;51.25;39.25;;;;;8.88;61.17;102345.72;5045254;28;45617;-46
2022/01/19 11:30:53;;;;;;;;;60.25;43.50;;;;;8.87;61.10;102342.22;5039812;28;45379;-48
2022/01/19 11:33:28;;;;;;;;;53.00;43.00;;;;;8.87;61.16;102330.88;5021401;28;45318;-48
2022/01/19 11:36:04;;;;;;;;;54.25;42.00;;;;;8.85;61.17;102336.06;5039770;28;45333;-48
2022/01/19 11:38:34;;;;;;;;;54.75;42.75;;;;;8.85;61.46;102332.56;5039299;28;47003;-50
2022/01/19 11:41:02;;;;;;;;;61.50;45.25;;;;;8.84;61.00;102326.47;5021431;28;45312;-49
2022/01/19 11:43:30;;;;;;;;;56.50;41.25;;;;;8.84;61.37;102333.41;5039452;28;45349;-47
2022/01/19 11:45:58;;;;;;;;;54.75;43.25;;;;;8.82;61.26;102327.25;5039411;28;45468;-48
2022/01/19 11:48:31;;;;;;;;;54.50;44.00;;;;;8.79;61.54;102314.97;5021739;28;47206;-47
2022/01/19 11:51:34;;;;;;;;;60.25;46.50;;;;;8.80;61.34;102305.38;5045649;28;45329;-47
2022/01/19 11:54:21;;;;;;;;;64.00;47.50;;;;;8.82;61.30;102308.91;5039188;28;45332;-47
2022/01/19 11:56:58;;;;;;;;;62.25;48.25;;;;;8.80;61.44;102301.00;5047681;28;45502;-46
2022/01/19 11:59:34;;;;;;;;;57.75;46.50;;;;;8.80;61.37;102300.16;5059232;28;46312;-47
2022/01/19 12:02:24;;;;;;;;;58.25;45.50;;;;;8.78;61.60;102287.88;5059352;28;45233;-48
2022/01/19 12:05:01;;;;;;;;;62.25;46.50;;;;;8.79;61.64;102296.63;5059265;28;45375;-47
2022/01/19 12:07:48;;;;;;;;;61.00;47.00;;;;;8.76;61.38;102302.69;5056601;28;45954;-48
2022/01/19 12:10:38;;;;;;;;;61.25;48.00;;;;;8.74;61.68;102303.53;5041772;28;46042;-50
2022/01/19 12:16:11;;;;;;;;;55.00;43.50;;;;;8.70;61.97;102312.19;5062715;28;45384;-47
2022/01/19 12:18:57;;;;;;;;;54.25;42.00;;;;;8.69;61.92;102303.47;5062338;28;45901;-46
2022/01/19 12:21:31;;;;;;;;;58.75;46.00;;;;;8.68;61.88;102306.94;5044516;28;48303;-48
2022/01/19 12:24:13;;;;;;;;;59.00;48.00;;;;;8.67;61.61;102299.91;5062196;28;45321;-50
2022/01/19 12:26:55;;;;;;;;;55.50;42.50;;;;;8.68;61.63;102287.69;5062684;28;45343;-49
2022/01/19 12:29:33;;;;;;;;;56.50;44.25;;;;;8.69;61.63;102278.97;5044229;28;45943;-51
2022/01/19 12:32:02;;;;;;;;;52.75;42.75;;;;;8.68;61.82;102278.09;5044604;28;45463;-50
2022/01/19 12:34:50;;;;;;;;;52.25;43.25;;;;;8.71;62.00;102277.28;5042756;28;45269;-46
2022/01/19 12:37:41;;;;;;;;;53.50;41.00;;;;;8.71;61.80;102288.63;5042540;28;45297;-46
2022/01/19 12:40:12;;;;;;;;;51.50;43.00;;;;;8.71;62.05;102282.50;5041745;28;45361;-46
2022/01/19 12:42:42;;;;;;;;;49.50;36.50;;;;;8.66;61.95;102281.56;5042032;28;45368;-49
2022/01/19 12:45:50;;;;;;;;;52.75;40.50;;;;;8.67;61.99;102283.31;5041684;28;45266;-48
2022/01/19 12:48:35;;;;;;;;;45.75;36.75;;;;;8.66;61.82;102264.06;5047429;28;45309;-45
2022/01/19 12:51:01;;;;;;;;;54.00;42.00;;;;;8.65;62.03;102272.78;5055559;28;45332;-47